DIRECCIÓN GENERAL DE AERONÁUTICA CIVIL
DIRECCIÓN METEOROLÓGICA DE CHILE
INFORMACIÓN METAR Y TAF

FIR PUERTO MONTT

Estación: SCQP
METAR SCQP 011500Z 11002KT 9000 VCFG FEW035 BKN090 11/10 Q1014=

TAF SCQP 011050Z 0112/0212 35007KT 9999 SCT040 TX17/0119Z TN06/0210Z TEMPO 0112/0114 2000 BR SCT020 BECMG 0114/0116 SCT030 BKN060 BECMG 0117/0119 7000 -SHRA BKN020 OVC050 TEMPO 0122/0204 9999 NSW SCT030 BKN060=

Estación: SCVD
METAR SCVD 011500Z 00000KT 7000 -SHRA BKN004 OVC080 10/10 Q1014=

TAF SCVD 011051Z 0112/0200 35007KT 7000 -SHRA SCT015 BKN050 TN08/ 0112Z TX14/0119Z TEMPO 0112/0117 VRB02KT 9999 NSW SCT030 BKN060=

Estación: SCJO
METAR SCJO 011500Z VRB03KT 5000 BR SCT020 OVC070 11/11 Q1013=

TAF SCJO 011052Z 0112/0200 01008KT 9999 FEW020 SCT060 TN08/0112Z TX17 /0119Z TEMPO 0112/0114 2000 BR SCT020 BECMG 0117/0119 7000 -SHRA BKN015 OVC050=

Estación: SCTE
METAR SCTE 011500Z 06003KT 9999 -SHRA SCT050 OVC070 11/10 Q1014 NOSIG=

TAF SCTE 011054Z 0112/0200 VRB02KT 9999 FEW020 SCT060 TN08/0112Z TX13 /0119Z BECMG 0119/0121 BKN020 OVC060 TEMPO 0121/0200 7000 -SHRA BKN015 OVC050=

Estación: SCPQ
METAR SCPQ 011500Z 00000KT CAVOK 11/10 Q1013=

TAF SCPQ 301015Z 3012/3024 VRB02KT CAVOK TN05/3012Z TX15/3020Z PROB30 TEMPO 3012/3014 0800 FG SCT005=

Estación: SCON
METAR SCON 010200Z AUTO 00000KT 2500 -DZ SKC 07/07 Q1011=

TAF SCON NIL=

Estación: SCTN
METAR SCTN 011500Z VRB02KT CAVOK 11/09 Q1014=

TAF SCTN 011055Z 0112/0200 VRB02KT 9999 FEW060 TN08/0112Z TX12/0119Z BECMG 0119/0121 BKN050=

Estación: SCFT
METAR SCFT 011500Z AUTO 00000KT CAVOK 06/03 Q1016=

TAF SCFT NIL=

Estación: SCAP
METAR SCAP 011500Z AUTO /////KT ///V/// //// // NSC 09/02 Q1021=

TAF SCAP NIL=

Estación: SCMK
METAR SCMK 301600Z 04008KT CAVOK 12/09 Q1014=

TAF SCMK 011055Z 0112/0200 08008KT 9999 FEW010 SCT060 TN08/0112Z TX13 /0119Z=

Estación: SCAS
METAR SCAS 291900Z 36006KT CAVOK 13/00 Q1025=

TAF SCAS NIL=

Estación: SCCY
METAR SCCY 011500Z 17003KT CAVOK 03/M01 Q1016=

TAF SCCY 011055Z 0112/0200 VRB02KT CAVOK TNM03/0112Z TX12/0119Z=

Estación: SCBA
METAR SCBA 011500Z 00000KT CAVOK 03/M03 Q1016=

TAF SCBA 011056Z 0112/0212 VRB02KT CAVOK TX12/0119Z TNM07/0210Z BECMG 0122/0200 31006KT=

Estación: SCCC
METAR SCCC 291900Z 35003KT CAVOK 09/01 Q1026=

TAF SCCC NIL=

Estación: SCHR
METAR SCHR 291600Z 28003KT CAVOK 06/M00 Q1026=

TAF SCHR 291047Z 2912/3000 VRB03KT CAVOK TNM02/2912Z TX09/2919Z TEMPO 2912/2916 26005KT BECMG 2919/2921 05005KT=


Volver